sensor_id;sensor_type;location;lat;lon;timestamp;temperature;humidity
58447;DHT22;44240;51.840;7.258;2022-10-17T00:01:10;15.50;99.90
58447;DHT22;44240;51.840;7.258;2022-10-17T00:03:37;15.50;99.90
58447;DHT22;44240;51.840;7.258;2022-10-17T00:06:07;15.50;99.90
58447;DHT22;44240;51.840;7.258;2022-10-17T00:08:34;15.50;99.90
58447;DHT22;44240;51.840;7.258;2022-10-17T00:11:04;15.50;99.90
58447;DHT22;44240;51.840;7.258;2022-10-17T00:13:30;15.50;99.90
58447;DHT22;44240;51.840;7.258;2022-10-17T00:15:56;15.40;99.90
58447;DHT22;44240;51.840;7.258;2022-10-17T00:18:23;15.50;99.90
58447;DHT22;44240;51.840;7.258;2022-10-17T00:20:48;15.40;99.90
58447;DHT22;44240;51.840;7.258;2022-10-17T00:23:14;15.40;99.90
58447;DHT22;44240;51.840;7.258;2022-10-17T00:25:40;15.50;99.90
58447;DHT22;44240;51.840;7.258;2022-10-17T00:28:08;15.40;99.90
58447;DHT22;44240;51.840;7.258;2022-10-17T00:30:33;15.40;99.90
58447;DHT22;44240;51.840;7.258;2022-10-17T00:32:59;15.40;99.90
58447;DHT22;44240;51.840;7.258;2022-10-17T00:35:25;15.50;99.90
58447;DHT22;44240;51.840;7.258;2022-10-17T00:37:50;15.50;99.90
58447;DHT22;44240;51.840;7.258;2022-10-17T00:40:16;15.50;99.90
58447;DHT22;44240;51.840;7.258;2022-10-17T00:42:41;15.40;99.90
58447;DHT22;44240;51.840;7.258;2022-10-17T00:45:18;15.50;99.90
58447;DHT22;44240;51.840;7.258;2022-10-17T00:47:47;15.40;99.90
58447;DHT22;44240;51.840;7.258;2022-10-17T00:50:15;15.40;99.90
58447;DHT22;44240;51.840;7.258;2022-10-17T00:52:42;15.40;99.90
58447;DHT22;44240;51.840;7.258;2022-10-17T00:55:15;15.40;99.90
58447;DHT22;44240;51.840;7.258;2022-10-17T00:57:42;15.40;99.90
58447;DHT22;44240;51.840;7.258;2022-10-17T01:00:09;15.40;99.90
58447;DHT22;44240;51.840;7.258;2022-10-17T01:02:35;15.40;99.90
58447;DHT22;44240;51.840;7.258;2022-10-17T01:05:01;15.40;99.90
58447;DHT22;44240;51.840;7.258;2022-10-17T01:07:28;15.30;99.90
58447;DHT22;44240;51.840;7.258;2022-10-17T01:09:54;15.30;99.90
58447;DHT22;44240;51.840;7.258;2022-10-17T01:12:45;15.30;99.90
58447;DHT22;44240;51.840;7.258;2022-10-17T01:18:16;15.30;99.90
58447;DHT22;44240;51.840;7.258;2022-10-17T01:31:54;15.20;99.90
58447;DHT22;44240;51.840;7.258;2022-10-17T01:34:34;15.20;99.90
58447;DHT22;44240;51.840;7.258;2022-10-17T01:37:18;15.10;99.90
58447;DHT22;44240;51.840;7.258;2022-10-17T01:39:59;15.10;99.90
58447;DHT22;44240;51.840;7.258;2022-10-17T01:42:34;15.10;99.90
58447;DHT22;44240;51.840;7.258;2022-10-17T01:45:17;15.10;99.90
58447;DHT22;44240;51.840;7.258;2022-10-17T01:47:45;15.10;99.90
58447;DHT22;44240;51.840;7.258;2022-10-17T01:50:19;15.10;99.90
58447;DHT22;44240;51.840;7.258;2022-10-17T01:53:00;15.10;99.90
58447;DHT22;44240;51.840;7.258;2022-10-17T01:55:32;15.10;99.90
58447;DHT22;44240;51.840;7.258;2022-10-17T01:58:12;15.10;99.90
58447;DHT22;44240;51.840;7.258;2022-10-17T02:00:39;15.10;99.90
58447;DHT22;44240;51.840;7.258;2022-10-17T02:03:09;15.10;99.90
58447;DHT22;44240;51.840;7.258;2022-10-17T02:05:38;15.00;99.90
58447;DHT22;44240;51.840;7.258;2022-10-17T02:08:05;15.10;99.90
58447;DHT22;44240;51.840;7.258;2022-10-17T02:11:08;15.10;99.90
58447;DHT22;44240;51.840;7.258;2022-10-17T02:13:47;15.00;99.90
58447;DHT22;44240;51.840;7.258;2022-10-17T02:24:53;15.00;99.90
58447;DHT22;44240;51.840;7.258;2022-10-17T02:30:28;15.10;99.90
58447;DHT22;44240;51.840;7.258;2022-10-17T02:35:35;15.00;99.90
58447;DHT22;44240;51.840;7.258;2022-10-17T02:38:04;15.10;99.90
58447;DHT22;44240;51.840;7.258;2022-10-17T02:40:31;15.10;99.90
58447;DHT22;44240;51.840;7.258;2022-10-17T02:42:58;15.10;99.90
58447;DHT22;44240;51.840;7.258;2022-10-17T02:45:28;15.10;99.90
58447;DHT22;44240;51.840;7.258;2022-10-17T02:53:56;15.20;99.90
58447;DHT22;44240;51.840;7.258;2022-10-17T02:56:24;15.10;99.90
58447;DHT22;44240;51.840;7.258;2022-10-17T02:58:54;15.20;99.90
58447;DHT22;44240;51.840;7.258;2022-10-17T03:01:21;15.20;99.90
58447;DHT22;44240;51.840;7.258;2022-10-17T03:03:47;15.20;99.90
58447;DHT22;44240;51.840;7.258;2022-10-17T03:06:13;15.20;99.90
58447;DHT22;44240;51.840;7.258;2022-10-17T03:08:38;15.20;99.90
58447;DHT22;44240;51.840;7.258;2022-10-17T03:11:04;15.20;99.90
58447;DHT22;44240;51.840;7.258;2022-10-17T03:13:29;15.20;99.90
58447;DHT22;44240;51.840;7.258;2022-10-17T03:15:55;15.10;99.90
58447;DHT22;44240;51.840;7.258;2022-10-17T03:18:21;15.20;99.90
58447;DHT22;44240;51.840;7.258;2022-10-17T03:20:47;15.20;99.90
58447;DHT22;44240;51.840;7.258;2022-10-17T03:23:13;15.20;99.90
58447;DHT22;44240;51.840;7.258;2022-10-17T03:25:38;15.20;99.90
58447;DHT22;44240;51.840;7.258;2022-10-17T03:28:04;15.20;99.90
58447;DHT22;44240;51.840;7.258;2022-10-17T03:30:30;15.20;99.90
58447;DHT22;44240;51.840;7.258;2022-10-17T03:32:57;15.20;99.90
58447;DHT22;44240;51.840;7.258;2022-10-17T03:35:23;15.20;99.90
58447;DHT22;44240;51.840;7.258;2022-10-17T03:37:48;15.20;99.90
58447;DHT22;44240;51.840;7.258;2022-10-17T03:40:14;15.20;99.90
58447;DHT22;44240;51.840;7.258;2022-10-17T03:42:40;15.20;99.90
58447;DHT22;44240;51.840;7.258;2022-10-17T03:45:05;15.20;99.90
58447;DHT22;44240;51.840;7.258;2022-10-17T03:47:31;15.20;99.90
58447;DHT22;44240;51.840;7.258;2022-10-17T03:49:56;15.20;99.90
58447;DHT22;44240;51.840;7.258;2022-10-17T03:52:22;15.20;99.90
58447;DHT22;44240;51.840;7.258;2022-10-17T03:54:49;15.20;99.90
58447;DHT22;44240;51.840;7.258;2022-10-17T03:57:15;15.30;99.90
58447;DHT22;44240;51.840;7.258;2022-10-17T03:59:41;15.20;99.90
58447;DHT22;44240;51.840;7.258;2022-10-17T04:02:06;15.30;99.90
58447;DHT22;44240;51.840;7.258;2022-10-17T04:04:32;15.30;99.90
58447;DHT22;44240;51.840;7.258;2022-10-17T04:06:57;15.30;99.90
58447;DHT22;44240;51.840;7.258;2022-10-17T04:09:23;15.30;99.90
58447;DHT22;44240;51.840;7.258;2022-10-17T04:11:48;15.30;99.90
58447;DHT22;44240;51.840;7.258;2022-10-17T04:14:14;15.30;99.90
58447;DHT22;44240;51.840;7.258;2022-10-17T04:16:39;15.40;99.90
58447;DHT22;44240;51.840;7.258;2022-10-17T04:19:05;15.40;99.90
58447;DHT22;44240;51.840;7.258;2022-10-17T04:21:31;15.40;99.90
58447;DHT22;44240;51.840;7.258;2022-10-17T04:23:58;15.40;99.90
58447;DHT22;44240;51.840;7.258;2022-10-17T04:26:24;15.40;99.90
58447;DHT22;44240;51.840;7.258;2022-10-17T04:28:50;15.40;99.90
58447;DHT22;44240;51.840;7.258;2022-10-17T04:31:15;15.50;99.90
58447;DHT22;44240;51.840;7.258;2022-10-17T04:33:41;15.40;99.90
58447;DHT22;44240;51.840;7.258;2022-10-17T04:36:12;15.50;99.90
58447;DHT22;44240;51.840;7.258;2022-10-17T04:38:38;15.40;99.90
58447;DHT22;44240;51.840;7.258;2022-10-17T04:41:12;15.50;99.90
58447;DHT22;44240;51.840;7.258;2022-10-17T04:43:38;15.50;99.90
58447;DHT22;44240;51.840;7.258;2022-10-17T04:46:12;15.50;99.90
58447;DHT22;44240;51.840;7.258;2022-10-17T04:48:39;15.50;99.90
58447;DHT22;44240;51.840;7.258;2022-10-17T04:51:08;15.50;99.90
58447;DHT22;44240;51.840;7.258;2022-10-17T04:53:35;15.50;99.90
58447;DHT22;44240;51.840;7.258;2022-10-17T04:56:13;15.60;99.90
58447;DHT22;44240;51.840;7.258;2022-10-17T04:58:40;15.50;99.90
58447;DHT22;44240;51.840;7.258;2022-10-17T05:01:08;15.60;99.90
58447;DHT22;44240;51.840;7.258;2022-10-17T05:03:34;15.60;99.90
58447;DHT22;44240;51.840;7.258;2022-10-17T05:06:11;15.60;99.90
58447;DHT22;44240;51.840;7.258;2022-10-17T05:08:37;15.60;99.90
58447;DHT22;44240;51.840;7.258;2022-10-17T05:11:03;15.60;99.90
58447;DHT22;44240;51.840;7.258;2022-10-17T05:13:30;15.60;99.90
58447;DHT22;44240;51.840;7.258;2022-10-17T05:16:00;15.60;99.90
58447;DHT22;44240;51.840;7.258;2022-10-17T05:18:26;15.70;99.90
58447;DHT22;44240;51.840;7.258;2022-10-17T05:20:52;15.60;99.90
58447;DHT22;44240;51.840;7.258;2022-10-17T05:23:17;15.60;99.90
58447;DHT22;44240;51.840;7.258;2022-10-17T05:25:43;15.70;99.90
58447;DHT22;44240;51.840;7.258;2022-10-17T05:28:08;15.70;99.90
58447;DHT22;44240;51.840;7.258;2022-10-17T05:30:34;15.70;99.90
58447;DHT22;44240;51.840;7.258;2022-10-17T05:33:01;15.70;99.90
58447;DHT22;44240;51.840;7.258;2022-10-17T05:35:27;15.70;99.90
58447;DHT22;44240;51.840;7.258;2022-10-17T05:37:52;15.70;99.90
58447;DHT22;44240;51.840;7.258;2022-10-17T05:40:18;15.70;99.90
58447;DHT22;44240;51.840;7.258;2022-10-17T05:42:47;15.70;99.90
58447;DHT22;44240;51.840;7.258;2022-10-17T05:45:14;15.70;99.90
58447;DHT22;44240;51.840;7.258;2022-10-17T05:47:40;15.70;99.90
58447;DHT22;44240;51.840;7.258;2022-10-17T05:50:06;15.70;99.90
58447;DHT22;44240;51.840;7.258;2022-10-17T05:52:32;15.70;99.90
58447;DHT22;44240;51.840;7.258;2022-10-17T05:54:58;15.70;99.90
58447;DHT22;44240;51.840;7.258;2022-10-17T05:57:24;15.70;99.90
58447;DHT22;44240;51.840;7.258;2022-10-17T05:59:50;15.70;99.90
58447;DHT22;44240;51.840;7.258;2022-10-17T06:02:16;15.70;99.90
58447;DHT22;44240;51.840;7.258;2022-10-17T06:04:41;15.80;99.90
58447;DHT22;44240;51.840;7.258;2022-10-17T06:07:11;15.80;99.90
58447;DHT22;44240;51.840;7.258;2022-10-17T06:09:37;15.70;99.90
58447;DHT22;44240;51.840;7.258;2022-10-17T06:12:03;15.80;99.90
58447;DHT22;44240;51.840;7.258;2022-10-17T06:14:29;15.80;99.90
58447;DHT22;44240;51.840;7.258;2022-10-17T06:16:54;15.80;99.90
58447;DHT22;44240;51.840;7.258;2022-10-17T06:19:20;15.80;99.90
58447;DHT22;44240;51.840;7.258;2022-10-17T06:21:45;15.80;99.90
58447;DHT22;44240;51.840;7.258;2022-10-17T06:24:11;15.80;99.90
58447;DHT22;44240;51.840;7.258;2022-10-17T06:26:37;15.80;99.90
58447;DHT22;44240;51.840;7.258;2022-10-17T06:29:03;15.80;99.90
58447;DHT22;44240;51.840;7.258;2022-10-17T06:31:28;15.90;99.90
58447;DHT22;44240;51.840;7.258;2022-10-17T06:33:54;15.90;99.90
58447;DHT22;44240;51.840;7.258;2022-10-17T06:36:19;15.90;99.90
58447;DHT22;44240;51.840;7.258;2022-10-17T06:38:45;15.90;99.90
58447;DHT22;44240;51.840;7.258;2022-10-17T06:41:13;15.90;99.90
58447;DHT22;44240;51.840;7.258;2022-10-17T06:43:41;15.90;99.90
58447;DHT22;44240;51.840;7.258;2022-10-17T06:46:14;15.90;99.90
58447;DHT22;44240;51.840;7.258;2022-10-17T06:48:40;16.00;99.90
58447;DHT22;44240;51.840;7.258;2022-10-17T06:51:06;16.00;99.90
58447;DHT22;44240;51.840;7.258;2022-10-17T06:53:34;16.00;99.90
58447;DHT22;44240;51.840;7.258;2022-10-17T06:56:01;16.10;99.90
58447;DHT22;44240;51.840;7.258;2022-10-17T06:58:30;16.10;99.90
58447;DHT22;44240;51.840;7.258;2022-10-17T07:01:04;16.10;99.90
58447;DHT22;44240;51.840;7.258;2022-10-17T07:03:30;16.20;99.90
58447;DHT22;44240;51.840;7.258;2022-10-17T07:05:56;16.20;99.90
58447;DHT22;44240;51.840;7.258;2022-10-17T07:08:22;16.20;99.90
58447;DHT22;44240;51.840;7.258;2022-10-17T07:10:48;16.30;99.90
58447;DHT22;44240;51.840;7.258;2022-10-17T07:13:14;16.30;99.90
58447;DHT22;44240;51.840;7.258;2022-10-17T07:15:40;16.40;99.90
58447;DHT22;44240;51.840;7.258;2022-10-17T07:18:06;16.40;99.90
58447;DHT22;44240;51.840;7.258;2022-10-17T07:20:32;16.40;99.90
58447;DHT22;44240;51.840;7.258;2022-10-17T07:22:57;16.50;99.90
58447;DHT22;44240;51.840;7.258;2022-10-17T07:25:23;16.50;99.90
58447;DHT22;44240;51.840;7.258;2022-10-17T07:27:49;16.60;99.90
58447;DHT22;44240;51.840;7.258;2022-10-17T07:30:15;16.60;99.90
58447;DHT22;44240;51.840;7.258;2022-10-17T07:32:41;16.70;99.90
58447;DHT22;44240;51.840;7.258;2022-10-17T07:35:08;16.70;99.90
58447;DHT22;44240;51.840;7.258;2022-10-17T07:37:33;16.70;99.90
58447;DHT22;44240;51.840;7.258;2022-10-17T07:39:59;16.80;99.90
58447;DHT22;44240;51.840;7.258;2022-10-17T07:42:25;16.90;99.90
58447;DHT22;44240;51.840;7.258;2022-10-17T07:44:52;16.90;99.90
58447;DHT22;44240;51.840;7.258;2022-10-17T07:47:17;17.00;99.90
58447;DHT22;44240;51.840;7.258;2022-10-17T07:49:43;17.10;99.90
58447;DHT22;44240;51.840;7.258;2022-10-17T07:52:10;17.10;99.90
58447;DHT22;44240;51.840;7.258;2022-10-17T07:54:36;17.20;99.90
58447;DHT22;44240;51.840;7.258;2022-10-17T07:57:02;17.30;99.90
58447;DHT22;44240;51.840;7.258;2022-10-17T07:59:28;17.40;99.90
58447;DHT22;44240;51.840;7.258;2022-10-17T08:01:56;17.40;99.90
58447;DHT22;44240;51.840;7.258;2022-10-17T08:04:22;17.50;99.90
58447;DHT22;44240;51.840;7.258;2022-10-17T08:06:48;17.60;99.90
58447;DHT22;44240;51.840;7.258;2022-10-17T08:09:14;17.70;99.90
58447;DHT22;44240;51.840;7.258;2022-10-17T08:11:40;17.70;99.90
58447;DHT22;44240;51.840;7.258;2022-10-17T08:14:08;17.80;99.90
58447;DHT22;44240;51.840;7.258;2022-10-17T08:16:34;17.80;99.90
58447;DHT22;44240;51.840;7.258;2022-10-17T08:19:00;17.90;99.90
58447;DHT22;44240;51.840;7.258;2022-10-17T08:21:25;17.90;99.90
58447;DHT22;44240;51.840;7.258;2022-10-17T08:23:51;18.00;99.90
58447;DHT22;44240;51.840;7.258;2022-10-17T08:26:17;18.00;99.90
58447;DHT22;44240;51.840;7.258;2022-10-17T08:28:44;18.10;99.90
58447;DHT22;44240;51.840;7.258;2022-10-17T08:31:16;18.10;99.90
58447;DHT22;44240;51.840;7.258;2022-10-17T08:33:46;18.20;99.90
58447;DHT22;44240;51.840;7.258;2022-10-17T08:36:14;18.20;99.90
58447;DHT22;44240;51.840;7.258;2022-10-17T08:38:40;18.30;99.90
58447;DHT22;44240;51.840;7.258;2022-10-17T08:46:35;18.50;99.90
58447;DHT22;44240;51.840;7.258;2022-10-17T08:49:04;18.60;99.90
58447;DHT22;44240;51.840;7.258;2022-10-17T08:51:33;18.60;99.90
58447;DHT22;44240;51.840;7.258;2022-10-17T08:54:13;18.60;99.90
58447;DHT22;44240;51.840;7.258;2022-10-17T08:56:47;18.70;99.90
58447;DHT22;44240;51.840;7.258;2022-10-17T08:59:25;18.80;99.90
58447;DHT22;44240;51.840;7.258;2022-10-17T09:02:05;18.90;99.90
58447;DHT22;44240;51.840;7.258;2022-10-17T09:12:40;19.20;99.90
58447;DHT22;44240;51.840;7.258;2022-10-17T09:15:36;19.30;99.90
58447;DHT22;44240;51.840;7.258;2022-10-17T09:18:12;19.30;99.90
58447;DHT22;44240;51.840;7.258;2022-10-17T09:20:45;19.30;99.90
58447;DHT22;44240;51.840;7.258;2022-10-17T09:23:16;19.40;99.90
58447;DHT22;44240;51.840;7.258;2022-10-17T09:25:44;19.40;99.90
58447;DHT22;44240;51.840;7.258;2022-10-17T09:28:28;19.50;99.90
58447;DHT22;44240;51.840;7.258;2022-10-17T09:31:04;19.60;99.90
58447;DHT22;44240;51.840;7.258;2022-10-17T09:33:39;19.60;99.90
58447;DHT22;44240;51.840;7.258;2022-10-17T09:36:13;19.60;99.90
58447;DHT22;44240;51.840;7.258;2022-10-17T09:38:46;19.70;99.90
58447;DHT22;44240;51.840;7.258;2022-10-17T09:41:17;19.70;99.90
58447;DHT22;44240;51.840;7.258;2022-10-17T09:43:43;19.80;99.90
58447;DHT22;44240;51.840;7.258;2022-10-17T09:46:34;19.90;99.90
58447;DHT22;44240;51.840;7.258;2022-10-17T09:49:11;20.00;99.90
58447;DHT22;44240;51.840;7.258;2022-10-17T09:51:38;20.10;99.90
58447;DHT22;44240;51.840;7.258;2022-10-17T09:54:24;20.20;99.90
58447;DHT22;44240;51.840;7.258;2022-10-17T09:59:34;20.30;99.90
58447;DHT22;44240;51.840;7.258;2022-10-17T10:07:24;20.40;99.90
58447;DHT22;44240;51.840;7.258;2022-10-17T10:09:50;20.40;99.90
58447;DHT22;44240;51.840;7.258;2022-10-17T10:12:25;20.40;99.90
58447;DHT22;44240;51.840;7.258;2022-10-17T10:14:51;20.50;99.90
58447;DHT22;44240;51.840;7.258;2022-10-17T10:17:27;20.50;99.90
58447;DHT22;44240;51.840;7.258;2022-10-17T10:19:53;20.60;99.90
58447;DHT22;44240;51.840;7.258;2022-10-17T10:22:20;20.60;99.90
58447;DHT22;44240;51.840;7.258;2022-10-17T10:25:12;20.60;99.90
58447;DHT22;44240;51.840;7.258;2022-10-17T10:27:40;20.60;99.90
58447;DHT22;44240;51.840;7.258;2022-10-17T10:30:16;20.50;99.90
58447;DHT22;44240;51.840;7.258;2022-10-17T10:32:45;20.50;99.90
58447;DHT22;44240;51.840;7.258;2022-10-17T10:35:23;20.50;99.90
58447;DHT22;44240;51.840;7.258;2022-10-17T10:37:54;20.50;99.90
58447;DHT22;44240;51.840;7.258;2022-10-17T10:40:30;20.40;99.90
58447;DHT22;44240;51.840;7.258;2022-10-17T10:42:58;20.40;99.90
58447;DHT22;44240;51.840;7.258;2022-10-17T10:45:39;20.40;99.90
58447;DHT22;44240;51.840;7.258;2022-10-17T10:51:03;20.40;99.90
58447;DHT22;44240;51.840;7.258;2022-10-17T10:53:57;20.40;99.90
58447;DHT22;44240;51.840;7.258;2022-10-17T11:12:35;20.30;99.90
58447;DHT22;44240;51.840;7.258;2022-10-17T11:18:02;20.40;99.90
58447;DHT22;44240;51.840;7.258;2022-10-17T11:20:38;20.40;99.90
58447;DHT22;44240;51.840;7.258;2022-10-17T11:23:15;20.40;99.90
58447;DHT22;44240;51.840;7.258;2022-10-17T11:25:47;20.40;99.90
58447;DHT22;44240;51.840;7.258;2022-10-17T11:28:22;20.40;99.90
58447;DHT22;44240;51.840;7.258;2022-10-17T11:30:52;20.30;99.90
58447;DHT22;44240;51.840;7.258;2022-10-17T11:33:27;20.30;99.90
58447;DHT22;44240;51.840;7.258;2022-10-17T11:35:59;20.20;99.90
58447;DHT22;44240;51.840;7.258;2022-10-17T11:41:01;20.20;99.90
58447;DHT22;44240;51.840;7.258;2022-10-17T11:46:00;20.10;99.90
58447;DHT22;44240;51.840;7.258;2022-10-17T11:48:41;20.10;99.90
58447;DHT22;44240;51.840;7.258;2022-10-17T11:51:11;20.10;99.90
58447;DHT22;44240;51.840;7.258;2022-10-17T11:53:56;20.00;99.90
58447;DHT22;44240;51.840;7.258;2022-10-17T11:59:49;20.00;99.90
58447;DHT22;44240;51.840;7.258;2022-10-17T12:05:04;20.00;99.90
58447;DHT22;44240;51.840;7.258;2022-10-17T12:12:55;20.00;99.90
58447;DHT22;44240;51.840;7.258;2022-10-17T12:17:58;20.00;99.90
58447;DHT22;44240;51.840;7.258;2022-10-17T12:20:29;20.00;99.90
58447;DHT22;44240;51.840;7.258;2022-10-17T12:22:57;20.00;99.90
58447;DHT22;44240;51.840;7.258;2022-10-17T12:25:32;20.10;99.90
58447;DHT22;44240;51.840;7.258;2022-10-17T12:28:09;20.10;99.90
58447;DHT22;44240;51.840;7.258;2022-10-17T12:30:35;20.10;99.90
58447;DHT22;44240;51.840;7.258;2022-10-17T12:35:31;20.10;99.90
58447;DHT22;44240;51.840;7.258;2022-10-17T12:45:50;20.10;99.90
58447;DHT22;44240;51.840;7.258;2022-10-17T12:54:17;20.00;99.90
58447;DHT22;44240;51.840;7.258;2022-10-17T12:56:39;20.00;99.90
58447;DHT22;44240;51.840;7.258;2022-10-17T12:59:12;20.00;99.90
58447;DHT22;44240;51.840;7.258;2022-10-17T13:01:39;20.00;99.90
58447;DHT22;44240;51.840;7.258;2022-10-17T13:04:08;20.00;99.90
58447;DHT22;44240;51.840;7.258;2022-10-17T13:06:38;20.00;99.90
58447;DHT22;44240;51.840;7.258;2022-10-17T13:09:48;20.00;99.90
58447;DHT22;44240;51.840;7.258;2022-10-17T13:12:12;20.00;99.90
58447;DHT22;44240;51.840;7.258;2022-10-17T13:14:40;20.00;99.90
58447;DHT22;44240;51.840;7.258;2022-10-17T13:17:20;20.00;99.90
58447;DHT22;44240;51.840;7.258;2022-10-17T13:19:46;20.00;99.90
58447;DHT22;44240;51.840;7.258;2022-10-17T13:22:24;20.00;99.90
58447;DHT22;44240;51.840;7.258;2022-10-17T13:24:52;20.00;99.90
58447;DHT22;44240;51.840;7.258;2022-10-17T13:27:31;20.00;99.90
58447;DHT22;44240;51.840;7.258;2022-10-17T13:30:00;20.00;99.90
58447;DHT22;44240;51.840;7.258;2022-10-17T13:32:34;20.00;99.90
58447;DHT22;44240;51.840;7.258;2022-10-17T13:37:33;20.00;99.90
58447;DHT22;44240;51.840;7.258;2022-10-17T13:39:59;20.00;99.90
58447;DHT22;44240;51.840;7.258;2022-10-17T13:42:35;20.00;99.90
58447;DHT22;44240;51.840;7.258;2022-10-17T13:45:01;20.00;99.90
58447;DHT22;44240;51.840;7.258;2022-10-17T13:47:29;20.00;99.90
58447;DHT22;44240;51.840;7.258;2022-10-17T13:49:57;19.90;99.90
58447;DHT22;44240;51.840;7.258;2022-10-17T13:52:26;20.00;99.90
58447;DHT22;44240;51.840;7.258;2022-10-17T13:54:53;19.90;99.90
58447;DHT22;44240;51.840;7.258;2022-10-17T13:57:24;19.90;99.90
58447;DHT22;44240;51.840;7.258;2022-10-17T14:00:02;19.80;99.90
58447;DHT22;44240;51.840;7.258;2022-10-17T14:02:30;19.80;99.90
58447;DHT22;44240;51.840;7.258;2022-10-17T14:05:17;19.80;99.90
58447;DHT22;44240;51.840;7.258;2022-10-17T14:07:52;19.70;99.90
58447;DHT22;44240;51.840;7.258;2022-10-17T14:10:24;19.70;99.90
58447;DHT22;44240;51.840;7.258;2022-10-17T14:12:51;19.70;99.90
58447;DHT22;44240;51.840;7.258;2022-10-17T14:15:18;19.70;99.90
58447;DHT22;44240;51.840;7.258;2022-10-17T14:17:45;19.70;99.90
58447;DHT22;44240;51.840;7.258;2022-10-17T14:20:18;19.70;99.90
58447;DHT22;44240;51.840;7.258;2022-10-17T14:22:45;19.70;99.90
58447;DHT22;44240;51.840;7.258;2022-10-17T14:25:46;19.70;99.90
58447;DHT22;44240;51.840;7.258;2022-10-17T14:28:14;19.60;99.90
58447;DHT22;44240;51.840;7.258;2022-10-17T14:30:52;19.60;99.90
58447;DHT22;44240;51.840;7.258;2022-10-17T14:35:53;19.60;99.90
58447;DHT22;44240;51.840;7.258;2022-10-17T14:38:19;19.60;99.90
58447;DHT22;44240;51.840;7.258;2022-10-17T14:40:50;19.60;99.90
58447;DHT22;44240;51.840;7.258;2022-10-17T14:43:21;19.60;99.90
58447;DHT22;44240;51.840;7.258;2022-10-17T14:45:47;19.70;99.90
58447;DHT22;44240;51.840;7.258;2022-10-17T14:48:21;19.60;99.90
58447;DHT22;44240;51.840;7.258;2022-10-17T14:51:06;19.60;99.90
58447;DHT22;44240;51.840;7.258;2022-10-17T14:53:32;19.60;99.90
58447;DHT22;44240;51.840;7.258;2022-10-17T14:56:02;19.60;99.90
58447;DHT22;44240;51.840;7.258;2022-10-17T14:58:29;19.60;99.90
58447;DHT22;44240;51.840;7.258;2022-10-17T15:00:56;19.60;99.90
58447;DHT22;44240;51.840;7.258;2022-10-17T15:03:22;19.60;99.90
58447;DHT22;44240;51.840;7.258;2022-10-17T15:05:49;19.60;99.90
58447;DHT22;44240;51.840;7.258;2022-10-17T15:08:17;19.60;99.90
58447;DHT22;44240;51.840;7.258;2022-10-17T15:10:44;19.60;99.90
58447;DHT22;44240;51.840;7.258;2022-10-17T15:13:11;19.60;99.90
58447;DHT22;44240;51.840;7.258;2022-10-17T15:15:37;19.60;99.90
58447;DHT22;44240;51.840;7.258;2022-10-17T15:18:03;19.60;99.90
58447;DHT22;44240;51.840;7.258;2022-10-17T15:20:29;19.60;99.90
58447;DHT22;44240;51.840;7.258;2022-10-17T15:22:57;19.60;99.90
58447;DHT22;44240;51.840;7.258;2022-10-17T15:25:24;19.60;99.90
58447;DHT22;44240;51.840;7.258;2022-10-17T15:27:50;19.60;99.90
58447;DHT22;44240;51.840;7.258;2022-10-17T15:32:48;19.60;99.90
58447;DHT22;44240;51.840;7.258;2022-10-17T15:35:14;19.50;99.90
58447;DHT22;44240;51.840;7.258;2022-10-17T15:37:39;19.50;99.90
58447;DHT22;44240;51.840;7.258;2022-10-17T15:40:13;19.50;99.90
58447;DHT22;44240;51.840;7.258;2022-10-17T15:42:39;19.60;99.90
58447;DHT22;44240;51.840;7.258;2022-10-17T15:45:05;19.50;99.90
58447;DHT22;44240;51.840;7.258;2022-10-17T15:47:32;19.50;99.90
58447;DHT22;44240;51.840;7.258;2022-10-17T15:49:58;19.50;99.90
58447;DHT22;44240;51.840;7.258;2022-10-17T15:52:25;19.50;99.90
58447;DHT22;44240;51.840;7.258;2022-10-17T15:54:51;19.40;99.90
58447;DHT22;44240;51.840;7.258;2022-10-17T15:57:26;19.40;99.90
58447;DHT22;44240;51.840;7.258;2022-10-17T15:59:53;19.40;99.90
58447;DHT22;44240;51.840;7.258;2022-10-17T16:02:20;19.40;99.90
58447;DHT22;44240;51.840;7.258;2022-10-17T16:04:47;19.40;99.90
58447;DHT22;44240;51.840;7.258;2022-10-17T16:07:13;19.30;99.90
58447;DHT22;44240;51.840;7.258;2022-10-17T16:09:39;19.30;99.90
58447;DHT22;44240;51.840;7.258;2022-10-17T16:12:08;19.30;99.90
58447;DHT22;44240;51.840;7.258;2022-10-17T16:14:35;19.30;99.90
58447;DHT22;44240;51.840;7.258;2022-10-17T16:17:00;19.30;99.90
58447;DHT22;44240;51.840;7.258;2022-10-17T16:19:26;19.40;99.90
58447;DHT22;44240;51.840;7.258;2022-10-17T16:21:55;19.30;99.90
58447;DHT22;44240;51.840;7.258;2022-10-17T16:24:21;19.40;99.90
58447;DHT22;44240;51.840;7.258;2022-10-17T16:26:46;19.40;99.90
58447;DHT22;44240;51.840;7.258;2022-10-17T16:29:12;19.30;99.90
58447;DHT22;44240;51.840;7.258;2022-10-17T16:31:41;19.30;99.90
58447;DHT22;44240;51.840;7.258;2022-10-17T16:34:09;19.30;99.90
58447;DHT22;44240;51.840;7.258;2022-10-17T16:36:35;19.40;99.90
58447;DHT22;44240;51.840;7.258;2022-10-17T16:39:01;19.30;99.90
58447;DHT22;44240;51.840;7.258;2022-10-17T16:41:28;19.40;99.90
58447;DHT22;44240;51.840;7.258;2022-10-17T16:43:56;19.30;99.90
58447;DHT22;44240;51.840;7.258;2022-10-17T16:46:24;19.40;99.90
58447;DHT22;44240;51.840;7.258;2022-10-17T16:48:50;19.30;99.90
58447;DHT22;44240;51.840;7.258;2022-10-17T16:51:17;19.30;99.90
58447;DHT22;44240;51.840;7.258;2022-10-17T16:53:44;19.30;99.90
58447;DHT22;44240;51.840;7.258;2022-10-17T16:56:13;19.30;99.90
58447;DHT22;44240;51.840;7.258;2022-10-17T16:58:40;19.30;99.90
58447;DHT22;44240;51.840;7.258;2022-10-17T17:01:09;19.20;99.90
58447;DHT22;44240;51.840;7.258;2022-10-17T17:03:40;19.20;99.90
58447;DHT22;44240;51.840;7.258;2022-10-17T17:06:08;19.20;99.90
58447;DHT22;44240;51.840;7.258;2022-10-17T17:08:34;19.20;99.90
58447;DHT22;44240;51.840;7.258;2022-10-17T17:11:02;19.20;99.90
58447;DHT22;44240;51.840;7.258;2022-10-17T17:13:30;19.20;99.90
58447;DHT22;44240;51.840;7.258;2022-10-17T17:16:06;19.20;99.90
58447;DHT22;44240;51.840;7.258;2022-10-17T17:18:32;19.10;99.90
58447;DHT22;44240;51.840;7.258;2022-10-17T17:20:59;19.10;99.90
58447;DHT22;44240;51.840;7.258;2022-10-17T17:23:25;19.00;99.90
58447;DHT22;44240;51.840;7.258;2022-10-17T17:25:59;19.00;99.90
58447;DHT22;44240;51.840;7.258;2022-10-17T17:28:25;19.00;99.90
58447;DHT22;44240;51.840;7.258;2022-10-17T17:30:51;19.00;99.90
58447;DHT22;44240;51.840;7.258;2022-10-17T17:33:17;18.90;99.90
58447;DHT22;44240;51.840;7.258;2022-10-17T17:35:42;18.90;99.90
58447;DHT22;44240;51.840;7.258;2022-10-17T17:38:08;18.90;99.90
58447;DHT22;44240;51.840;7.258;2022-10-17T17:40:33;18.90;99.90
58447;DHT22;44240;51.840;7.258;2022-10-17T17:43:00;18.80;99.90